createdAt,value
2023-04-19T00:00:20.583Z,100588.48
2023-04-19T00:02:52.267Z,100590.33
2023-04-19T00:05:25.014Z,100592.00
2023-04-19T00:07:59.733Z,100595.84
2023-04-19T00:10:31.251Z,100590.27
2023-04-19T00:13:02.693Z,100592.39
2023-04-19T00:15:35.507Z,100593.94
2023-04-19T00:18:08.851Z,100590.09
2023-04-19T00:20:41.514Z,100586.55
2023-04-19T00:23:15.660Z,100580.11
2023-04-19T00:25:50.322Z,100576.73
2023-04-19T00:28:20.239Z,100574.21
2023-04-19T00:30:52.105Z,100571.87
2023-04-19T00:33:25.925Z,100570.56
2023-04-19T00:35:57.304Z,100569.45
2023-04-19T00:38:28.921Z,100566.77
2023-04-19T00:41:00.840Z,100565.36
2023-04-19T00:43:32.335Z,100565.49
2023-04-19T00:46:04.130Z,100560.05
2023-04-19T00:48:36.436Z,100561.08
2023-04-19T00:51:08.365Z,100562.31
2023-04-19T00:53:40.680Z,100560.45
2023-04-19T00:56:23.963Z,100560.96
2023-04-19T00:58:57.951Z,100554.54
2023-04-19T01:01:29.525Z,100557.79
2023-04-19T01:04:02.046Z,100555.41
2023-04-19T01:06:36.181Z,100556.45
2023-04-19T01:09:10.816Z,100551.60
2023-04-19T01:11:42.529Z,100545.98
2023-04-19T01:14:15.526Z,100543.22
2023-04-19T01:16:48.334Z,100540.59
2023-04-19T01:19:19.827Z,100534.52
2023-04-19T01:21:53.938Z,100532.04
2023-04-19T01:24:25.688Z,100532.23
2023-04-19T01:26:59.412Z,100525.11
2023-04-19T01:29:32.439Z,100523.55
2023-04-19T01:32:04.063Z,100516.17
2023-04-19T01:34:38.518Z,100521.52
2023-04-19T01:37:10.282Z,100520.06
2023-04-19T01:39:43.249Z,100519.92
2023-04-19T01:42:14.911Z,100516.89
2023-04-19T01:44:48.512Z,100511.64
2023-04-19T01:47:19.974Z,100505.00
2023-04-19T01:49:52.859Z,100496.61
2023-04-19T01:52:24.406Z,100498.02
2023-04-19T01:54:56.028Z,100491.60
2023-04-19T01:57:27.804Z,100487.55
2023-04-19T02:00:01.291Z,100487.17
2023-04-19T02:02:32.896Z,100483.62
2023-04-19T02:05:04.302Z,100481.80
2023-04-19T02:07:37.908Z,100478.60
2023-04-19T02:10:15.881Z,100478.38
2023-04-19T02:12:47.519Z,100474.30
2023-04-19T02:15:19.197Z,100472.09
2023-04-19T02:17:50.937Z,100469.10
2023-04-19T02:20:24.284Z,100462.49
2023-04-19T02:22:55.810Z,100468.67
2023-04-19T02:25:27.464Z,100461.14
2023-04-19T02:28:01.605Z,100455.15
2023-04-19T02:30:33.233Z,100451.36
2023-04-19T02:33:04.742Z,100447.85
2023-04-19T02:35:36.501Z,100448.63
2023-04-19T02:38:08.178Z,100441.55
2023-04-19T02:40:39.714Z,100441.79
2023-04-19T02:43:11.676Z,100440.93
2023-04-19T02:45:43.265Z,100440.20
2023-04-19T02:48:16.692Z,100439.67
2023-04-19T02:50:49.517Z,100434.92
2023-04-19T02:53:21.664Z,100433.57
2023-04-19T02:55:53.268Z,100431.30
2023-04-19T02:58:24.834Z,100427.72
2023-04-19T03:00:56.584Z,100423.41
2023-04-19T03:03:28.995Z,100424.50
2023-04-19T03:06:01.375Z,100416.25
2023-04-19T03:08:33.586Z,100419.16
2023-04-19T03:11:05.142Z,100420.39
2023-04-19T03:13:40.048Z,100419.59
2023-04-19T03:16:21.020Z,100416.68
2023-04-19T03:18:52.632Z,100415.73
2023-04-19T03:21:27.499Z,100412.58
2023-04-19T03:23:57.316Z,100413.66
2023-04-19T03:26:31.954Z,100414.48
2023-04-19T03:29:07.231Z,100411.34
2023-04-19T03:31:39.645Z,100411.26
2023-04-19T03:34:11.163Z,100407.80
2023-04-19T03:36:43.432Z,100407.88
2023-04-19T03:39:14.820Z,100405.02
2023-04-19T03:41:46.372Z,100405.71
2023-04-19T03:44:30.705Z,100403.02
2023-04-19T03:47:13.100Z,100401.03
2023-04-19T03:49:55.929Z,100396.62
2023-04-19T03:52:39.231Z,100395.28
2023-04-19T03:55:23.247Z,100392.18
2023-04-19T03:58:07.583Z,100385.16
2023-04-19T04:00:55.165Z,100386.58
2023-04-19T04:03:37.689Z,100380.09
2023-04-19T04:06:14.222Z,100382.80
2023-04-19T04:08:48.923Z,100380.02
2023-04-19T04:11:18.813Z,100372.39
2023-04-19T04:13:51.992Z,100373.56
2023-04-19T04:16:23.855Z,100374.01
2023-04-19T04:18:58.002Z,100375.64
2023-04-19T04:21:30.200Z,100367.56
2023-04-19T04:24:04.082Z,100369.05
2023-04-19T04:26:40.859Z,100370.14
2023-04-19T04:29:13.868Z,100367.11
2023-04-19T04:31:46.097Z,100365.38
2023-04-19T04:34:18.133Z,100364.52
2023-04-19T04:36:52.146Z,100366.38
2023-04-19T04:39:24.293Z,100364.06
2023-04-19T04:41:57.939Z,100365.05
2023-04-19T04:44:29.403Z,100360.69
2023-04-19T04:47:00.878Z,100357.10
2023-04-19T04:49:32.371Z,100357.73
2023-04-19T04:52:04.025Z,100355.60
2023-04-19T04:54:35.394Z,100348.39
2023-04-19T04:57:07.002Z,100350.08
2023-04-19T04:59:40.222Z,100349.77
2023-04-19T05:02:13.109Z,100346.92
2023-04-19T05:04:44.832Z,100349.82
2023-04-19T05:07:16.330Z,100346.42
2023-04-19T05:09:47.904Z,100340.34
2023-04-19T05:12:20.936Z,100342.25
2023-04-19T05:14:53.673Z,100337.36
2023-04-19T05:17:25.513Z,100340.95
2023-04-19T05:19:58.187Z,100341.64
2023-04-19T05:22:30.780Z,100342.52
2023-04-19T05:25:04.583Z,100339.48
2023-04-19T05:27:44.779Z,100339.97
2023-04-19T05:30:19.495Z,100338.20
2023-04-19T05:32:49.261Z,100337.87
2023-04-19T05:35:22.123Z,100323.48
2023-04-19T05:37:54.295Z,100323.84
2023-04-19T05:40:26.735Z,100326.27
2023-04-19T05:42:58.837Z,100325.48
2023-04-19T05:45:32.924Z,100329.77
2023-04-19T05:48:11.221Z,100325.22
2023-04-19T05:50:45.474Z,100320.34
2023-04-19T05:53:17.404Z,100319.23
2023-04-19T05:55:51.210Z,100321.34
2023-04-19T05:58:23.652Z,100322.00
2023-04-19T06:00:56.253Z,100319.58
2023-04-19T06:03:31.062Z,100317.33
2023-04-19T06:06:04.110Z,100320.95
2023-04-19T06:08:35.935Z,100322.63
2023-04-19T06:11:15.843Z,100323.86
2023-04-19T06:13:54.891Z,100321.09
2023-04-19T06:16:27.893Z,100324.63
2023-04-19T06:18:59.849Z,100320.65
2023-04-19T06:21:33.389Z,100326.61
2023-04-19T06:24:05.347Z,100329.01
2023-04-19T06:26:37.156Z,100330.80
2023-04-19T06:29:08.762Z,100325.19
2023-04-19T06:31:40.310Z,100327.11
2023-04-19T06:34:12.616Z,100328.17
2023-04-19T06:36:44.248Z,100327.88
2023-04-19T06:39:16.520Z,100333.20
2023-04-19T06:41:48.007Z,100334.92
2023-04-19T06:44:19.989Z,100331.77
2023-04-19T06:46:53.452Z,100325.06
2023-04-19T06:49:24.917Z,100327.61
2023-04-19T06:51:56.916Z,100330.10
2023-04-19T06:54:28.745Z,100329.48
2023-04-19T06:57:01.170Z,100329.81
2023-04-19T06:59:33.881Z,100335.48
2023-04-19T07:02:05.442Z,100332.50
2023-04-19T07:04:37.524Z,100329.09
2023-04-19T07:07:09.365Z,100331.33
2023-04-19T07:09:41.776Z,100333.02
2023-04-19T07:12:13.760Z,100332.22
2023-04-19T07:14:46.192Z,100337.73
2023-04-19T07:17:21.828Z,100337.67
2023-04-19T07:19:53.725Z,100338.91
2023-04-19T07:22:25.805Z,100339.86
2023-04-19T07:24:58.884Z,100335.77
2023-04-19T07:27:30.665Z,100335.80
2023-04-19T07:30:02.267Z,100334.58
2023-04-19T07:32:34.017Z,100331.53
2023-04-19T07:35:06.500Z,100335.71
2023-04-19T07:37:38.488Z,100338.71
2023-04-19T07:40:12.569Z,100333.09
2023-04-19T07:42:47.056Z,100331.71
2023-04-19T07:45:19.225Z,100330.81
2023-04-19T07:47:51.073Z,100334.70
2023-04-19T07:50:26.952Z,100334.42
2023-04-19T07:53:02.603Z,100333.55
2023-04-19T07:55:36.199Z,100337.95
2023-04-19T07:58:09.573Z,100337.85
2023-04-19T08:00:44.540Z,100336.06
2023-04-19T08:03:17.769Z,100333.94
2023-04-19T08:05:57.180Z,100331.46
2023-04-19T08:08:30.693Z,100325.52
2023-04-19T08:11:05.828Z,100325.95
2023-04-19T08:13:48.597Z,100314.59
2023-04-19T08:17:09.055Z,100322.14
2023-04-19T08:19:21.576Z,100322.89
2023-04-19T08:22:04.380Z,100322.60
2023-04-19T08:24:38.194Z,100323.48
2023-04-19T08:27:11.716Z,100321.17
2023-04-19T08:29:44.695Z,100314.84
2023-04-19T08:32:20.118Z,100320.35
2023-04-19T08:35:21.256Z,100323.95
2023-04-19T08:38:02.048Z,100312.67
2023-04-19T08:40:54.533Z,100320.34
2023-04-19T08:43:34.304Z,100327.01
2023-04-19T08:46:10.377Z,100329.03
2023-04-19T08:48:50.320Z,100327.83
2023-04-19T08:51:29.117Z,100328.47
2023-04-19T08:54:06.611Z,100328.61
2023-04-19T08:56:47.337Z,100331.44
2023-04-19T08:59:21.242Z,100332.43
2023-04-19T09:01:56.524Z,100333.07
2023-04-19T09:04:37.003Z,100337.63
2023-04-19T09:07:25.331Z,100332.27
2023-04-19T09:10:12.210Z,100332.87
2023-04-19T09:12:45.636Z,100329.95
2023-04-19T09:15:38.822Z,100330.23
2023-04-19T09:18:13.245Z,100330.40
2023-04-19T09:20:47.027Z,100323.63
2023-04-19T09:23:21.878Z,100327.40
2023-04-19T09:28:34.921Z,100331.89
2023-04-19T09:33:59.085Z,100332.54
2023-04-19T09:36:36.676Z,100333.54
2023-04-19T09:39:10.370Z,100327.36
2023-04-19T09:41:57.164Z,100328.10
2023-04-19T09:45:02.214Z,100326.20
2023-04-19T09:47:31.097Z,100325.80
2023-04-19T09:50:22.771Z,100326.37
2023-04-19T09:52:59.958Z,100334.45
2023-04-19T09:55:41.278Z,100333.55
2023-04-19T09:58:25.066Z,100333.90
2023-04-19T10:01:13.310Z,100333.36
2023-04-19T10:03:52.158Z,100334.41
2023-04-19T10:06:45.897Z,100339.89
2023-04-19T10:09:19.795Z,100340.20
2023-04-19T10:12:00.481Z,100343.10
2023-04-19T10:14:41.407Z,100345.40
2023-04-19T10:17:14.535Z,100343.48
2023-04-19T10:19:50.130Z,100348.37
2023-04-19T10:22:24.522Z,100352.25
2023-04-19T10:25:18.122Z,100351.17
2023-04-19T10:27:52.197Z,100349.84
2023-04-19T10:30:27.722Z,100345.27
2023-04-19T10:33:04.921Z,100342.33
2023-04-19T10:35:41.891Z,100343.24
2023-04-19T10:38:17.148Z,100342.93
2023-04-19T10:41:06.380Z,100345.70
2023-04-19T10:43:39.807Z,100345.38
2023-04-19T10:46:20.660Z,100343.05
2023-04-19T10:49:00.204Z,100333.84
2023-04-19T10:51:36.130Z,100340.52
2023-04-19T10:54:12.922Z,100347.78
2023-04-19T10:57:14.135Z,100354.16
2023-04-19T10:59:47.101Z,100353.78
2023-04-19T11:02:35.224Z,100352.73
2023-04-19T11:05:09.157Z,100348.66
2023-04-19T11:07:45.851Z,100345.98
2023-04-19T11:10:32.356Z,100350.05
2023-04-19T11:13:05.500Z,100350.23
2023-04-19T11:15:45.054Z,100353.14
2023-04-19T11:18:24.578Z,100351.25
2023-04-19T11:20:58.525Z,100355.58
2023-04-19T11:23:31.734Z,100357.54
2023-04-19T11:26:04.443Z,100361.64
2023-04-19T11:28:39.162Z,100360.03
2023-04-19T11:31:13.431Z,100357.73
2023-04-19T11:33:49.159Z,100363.66
2023-04-19T11:36:24.205Z,100360.00
2023-04-19T11:39:08.533Z,100363.60
2023-04-19T11:41:43.644Z,100359.52
2023-04-19T11:44:21.714Z,100365.14
2023-04-19T11:47:05.654Z,100365.95
2023-04-19T11:49:38.615Z,100365.52
2023-04-19T11:52:13.960Z,100367.93
2023-04-19T11:54:47.812Z,100363.13
2023-04-19T11:57:32.379Z,100366.25
2023-04-19T12:00:11.513Z,100368.67
2023-04-19T12:02:46.949Z,100364.05
2023-04-19T12:05:20.323Z,100364.20
2023-04-19T12:08:12.598Z,100365.23
2023-04-19T12:10:59.891Z,100365.11
2023-04-19T12:13:33.339Z,100361.91
2023-04-19T12:16:07.889Z,100362.18
2023-04-19T12:18:54.061Z,100361.88
2023-04-19T12:21:32.612Z,100366.33
2023-04-19T12:24:06.944Z,100362.90
2023-04-19T12:26:56.320Z,100364.56
2023-04-19T12:29:29.806Z,100363.81
2023-04-19T12:32:02.380Z,100361.04
2023-04-19T12:34:35.569Z,100362.93
2023-04-19T12:37:08.193Z,100367.88
2023-04-19T12:39:40.931Z,100362.70
2023-04-19T12:42:13.979Z,100365.76
2023-04-19T12:44:46.847Z,100369.08
2023-04-19T12:47:22.282Z,100371.34
2023-04-19T12:49:56.614Z,100369.16
2023-04-19T12:52:31.806Z,100367.27
2023-04-19T12:55:05.235Z,100362.17
2023-04-19T12:57:38.679Z,100358.23
2023-04-19T13:00:14.037Z,100364.11
2023-04-19T13:02:49.309Z,100365.79
2023-04-19T13:05:21.684Z,100364.54
2023-04-19T13:07:54.525Z,100369.64
2023-04-19T13:10:28.930Z,100367.95
2023-04-19T13:13:01.692Z,100367.34
2023-04-19T13:15:34.246Z,100368.48
2023-04-19T13:18:06.109Z,100370.13
2023-04-19T13:20:37.832Z,100373.36
2023-04-19T13:23:10.046Z,100376.06
2023-04-19T13:25:41.849Z,100375.74
2023-04-19T13:28:14.523Z,100377.61
2023-04-19T13:30:49.596Z,100381.01
2023-04-19T13:33:21.485Z,100384.73
2023-04-19T13:35:55.564Z,100384.09
2023-04-19T13:38:28.282Z,100382.29
2023-04-19T13:41:00.442Z,100387.02
2023-04-19T13:43:32.951Z,100386.00
2023-04-19T13:46:05.059Z,100384.55
2023-04-19T13:48:40.773Z,100380.89
2023-04-19T13:51:14.503Z,100381.36
2023-04-19T13:53:46.512Z,100383.36
2023-04-19T13:56:20.076Z,100377.29
2023-04-19T13:58:51.743Z,100386.27
2023-04-19T14:01:23.543Z,100386.98
2023-04-19T14:03:56.606Z,100386.69
2023-04-19T14:06:28.522Z,100383.52
2023-04-19T14:09:00.740Z,100381.80
2023-04-19T14:11:34.940Z,100387.02
2023-04-19T14:14:15.813Z,100383.04
2023-04-19T14:16:51.075Z,100385.50
2023-04-19T14:19:24.707Z,100382.19
2023-04-19T14:22:02.073Z,100377.67
2023-04-19T14:24:33.962Z,100377.02
2023-04-19T14:27:10.205Z,100372.87
2023-04-19T14:29:46.529Z,100372.10
2023-04-19T14:32:26.551Z,100369.93
2023-04-19T14:34:59.098Z,100368.81
2023-04-19T14:37:35.337Z,100365.73
2023-04-19T14:40:10.958Z,100370.29
2023-04-19T14:42:49.154Z,100363.96
2023-04-19T14:45:30.835Z,100366.91
2023-04-19T14:48:05.609Z,100367.42
2023-04-19T14:50:43.089Z,100368.90
2023-04-19T14:53:19.559Z,100376.05
2023-04-19T14:55:54.008Z,100374.02
2023-04-19T14:58:25.734Z,100375.27
2023-04-19T15:01:00.099Z,100372.48
2023-04-19T15:03:31.905Z,100371.01
2023-04-19T15:06:04.061Z,100375.08
2023-04-19T15:08:35.850Z,100370.59
2023-04-19T15:11:07.873Z,100368.67
2023-04-19T15:13:42.365Z,100372.50
2023-04-19T15:16:14.059Z,100373.45
2023-04-19T15:18:53.572Z,100370.69
2023-04-19T15:21:29.859Z,100374.56
2023-04-19T15:24:01.707Z,100373.33
2023-04-19T15:26:43.629Z,100373.34
2023-04-19T15:29:16.250Z,100380.08
2023-04-19T15:31:48.274Z,100387.93
2023-04-19T15:34:20.380Z,100387.06
2023-04-19T15:36:52.176Z,100391.14
2023-04-19T15:39:26.007Z,100384.82
2023-04-19T15:42:00.517Z,100389.88
2023-04-19T15:44:32.501Z,100397.54
2023-04-19T15:47:05.128Z,100399.92
2023-04-19T15:49:37.189Z,100403.59
2023-04-19T15:52:09.962Z,100405.78
2023-04-19T15:54:42.073Z,100407.50
2023-04-19T15:57:18.235Z,100405.73
2023-04-19T15:59:52.272Z,100408.96
2023-04-19T16:02:38.147Z,100410.25
2023-04-19T16:05:47.738Z,100405.87
2023-04-19T16:08:25.591Z,100410.43
2023-04-19T16:10:59.293Z,100416.77
2023-04-19T16:13:39.128Z,100416.30
2023-04-19T16:16:10.940Z,100419.74
2023-04-19T16:18:48.594Z,100415.19
2023-04-19T16:21:37.638Z,100422.30
2023-04-19T16:24:10.361Z,100425.02
2023-04-19T16:26:42.680Z,100431.42
2023-04-19T16:29:14.742Z,100428.84
2023-04-19T16:31:46.645Z,100423.52
2023-04-19T16:34:19.377Z,100428.84
2023-04-19T16:36:51.218Z,100425.65
2023-04-19T16:39:24.324Z,100425.52
2023-04-19T16:41:59.668Z,100431.13
2023-04-19T16:44:36.923Z,100433.38
2023-04-19T16:47:14.404Z,100434.08
2023-04-19T16:49:48.321Z,100437.20
2023-04-19T16:52:20.307Z,100437.43
2023-04-19T16:54:52.102Z,100440.33
2023-04-19T16:57:25.201Z,100441.48
2023-04-19T17:00:05.197Z,100443.06
2023-04-19T17:02:37.900Z,100439.02
2023-04-19T17:05:20.661Z,100444.56
2023-04-19T17:07:52.979Z,100444.85
2023-04-19T17:10:26.687Z,100447.80
2023-04-19T17:12:58.279Z,100448.70
2023-04-19T17:15:30.447Z,100448.44
2023-04-19T17:18:02.323Z,100447.66
2023-04-19T17:20:36.190Z,100446.64
2023-04-19T17:23:08.216Z,100447.30
2023-04-19T17:25:41.579Z,100452.68
2023-04-19T17:28:22.168Z,100452.39
2023-04-19T17:30:56.630Z,100452.73
2023-04-19T17:33:34.291Z,100457.11
2023-04-19T17:36:07.280Z,100460.13
2023-04-19T17:38:56.954Z,100464.17
2023-04-19T17:41:30.362Z,100467.98
2023-04-19T17:44:05.190Z,100461.02
2023-04-19T17:46:40.767Z,100460.20
2023-04-19T17:49:14.422Z,100464.28
2023-04-19T17:51:47.766Z,100461.86
2023-04-19T17:54:21.463Z,100470.14
2023-04-19T17:56:55.801Z,100464.98
2023-04-19T17:59:29.134Z,100470.91
2023-04-19T18:02:07.588Z,100465.72
2023-04-19T18:04:45.199Z,100479.00
2023-04-19T18:07:18.983Z,100475.55
2023-04-19T18:09:52.371Z,100477.42
2023-04-19T18:12:25.550Z,100478.41
2023-04-19T18:15:00.830Z,100479.48
2023-04-19T18:17:38.204Z,100481.05
2023-04-19T18:20:16.425Z,100486.83
2023-04-19T18:22:49.809Z,100488.31
2023-04-19T18:25:25.529Z,100489.55
2023-04-19T18:27:59.826Z,100491.87
2023-04-19T18:30:37.410Z,100493.86
2023-04-19T18:33:10.378Z,100495.39
2023-04-19T18:35:43.517Z,100495.84
2023-04-19T18:38:17.997Z,100498.33
2023-04-19T18:40:51.242Z,100500.90
2023-04-19T18:43:24.513Z,100498.52
2023-04-19T18:46:01.706Z,100499.14
2023-04-19T18:48:34.216Z,100497.76
2023-04-19T18:51:10.213Z,100504.27
2023-04-19T18:53:43.778Z,100501.88
2023-04-19T18:56:19.410Z,100499.96
2023-04-19T18:58:53.789Z,100503.92
2023-04-19T19:01:28.916Z,100501.60
2023-04-19T19:04:35.020Z,100504.98
2023-04-19T19:07:18.303Z,100502.19
2023-04-19T19:10:15.966Z,100505.45
2023-04-19T19:12:55.446Z,100504.63
2023-04-19T19:15:49.439Z,100503.23
2023-04-19T19:18:24.480Z,100505.52
2023-04-19T19:21:01.263Z,100503.84
2023-04-19T19:23:42.112Z,100505.39
2023-04-19T19:26:17.820Z,100509.88
2023-04-19T19:28:53.700Z,100508.83
2023-04-19T19:31:28.629Z,100507.64
2023-04-19T19:34:14.724Z,100506.88
2023-04-19T19:37:11.410Z,100510.26
2023-04-19T19:39:52.217Z,100510.31
2023-04-19T19:42:28.796Z,100511.17
2023-04-19T19:45:03.519Z,100516.27
2023-04-19T19:47:36.308Z,100515.57
2023-04-19T19:52:55.798Z,100515.81
2023-04-19T19:55:34.033Z,100519.47
2023-04-19T20:00:48.630Z,100519.67
2023-04-19T20:03:36.069Z,100520.59
2023-04-19T20:07:02.959Z,100519.63
2023-04-19T20:09:05.488Z,100517.52
2023-04-19T20:11:47.628Z,100510.42
2023-04-19T20:14:20.902Z,100517.54
2023-04-19T20:16:55.340Z,100514.40
2023-04-19T20:19:28.041Z,100518.84
2023-04-19T20:22:02.681Z,100514.52
2023-04-19T20:24:37.907Z,100515.48
2023-04-19T20:27:10.593Z,100509.59
2023-04-19T20:29:43.209Z,100512.12
2023-04-19T20:32:16.601Z,100513.56
2023-04-19T20:34:49.340Z,100519.94
2023-04-19T20:37:25.347Z,100520.34
2023-04-19T20:40:19.972Z,100517.74
2023-04-19T20:42:56.569Z,100519.95
2023-04-19T20:45:31.340Z,100521.70
2023-04-19T20:48:05.587Z,100523.73
2023-04-19T20:50:40.200Z,100525.91
2023-04-19T20:53:13.835Z,100525.92
2023-04-19T20:55:46.262Z,100525.59
2023-04-19T20:58:22.108Z,100522.83
2023-04-19T21:00:54.032Z,100519.81
2023-04-19T21:03:26.323Z,100522.08
2023-04-19T21:05:57.968Z,100520.45
2023-04-19T21:08:30.085Z,100520.41
2023-04-19T21:11:01.656Z,100525.80
2023-04-19T21:13:34.346Z,100530.23
2023-04-19T21:16:06.589Z,100522.58
2023-04-19T21:18:39.140Z,100525.39
2023-04-19T21:21:10.647Z,100521.63
2023-04-19T21:23:42.176Z,100521.05
2023-04-19T21:26:14.594Z,100518.30
2023-04-19T21:28:46.476Z,100514.77
2023-04-19T21:31:19.521Z,100512.24
2023-04-19T21:33:51.079Z,100515.30
2023-04-19T21:36:22.950Z,100514.67
2023-04-19T21:38:55.655Z,100520.02
2023-04-19T21:41:27.354Z,100525.21
2023-04-19T21:43:59.200Z,100529.88
2023-04-19T21:46:31.084Z,100521.75
2023-04-19T21:49:03.189Z,100521.74
2023-04-19T21:51:34.574Z,100518.80
2023-04-19T21:54:06.763Z,100518.33
2023-04-19T21:56:41.857Z,100514.73
2023-04-19T21:59:21.638Z,100508.80
2023-04-19T22:01:54.265Z,100509.64
2023-04-19T22:04:26.568Z,100507.14
2023-04-19T22:07:02.731Z,100509.52
2023-04-19T22:09:35.709Z,100507.45
2023-04-19T22:12:14.053Z,100516.42
2023-04-19T22:14:46.428Z,100519.86
2023-04-19T22:17:20.165Z,100519.47
2023-04-19T22:19:51.988Z,100523.17
2023-04-19T22:22:23.788Z,100526.95
2023-04-19T22:24:58.017Z,100528.19
2023-04-19T22:27:30.158Z,100526.94
2023-04-19T22:30:04.587Z,100518.62
2023-04-19T22:32:36.596Z,100526.45
2023-04-19T22:35:11.610Z,100526.59
2023-04-19T22:37:43.303Z,100518.77
2023-04-19T22:40:18.499Z,100514.06
2023-04-19T22:42:50.011Z,100521.25
2023-04-19T22:45:22.907Z,100525.70
2023-04-19T22:47:54.305Z,100524.63
2023-04-19T22:50:28.696Z,100524.52
2023-04-19T22:53:00.133Z,100526.00
2023-04-19T22:55:31.806Z,100525.58
2023-04-19T22:58:05.099Z,100527.20
2023-04-19T23:00:36.824Z,100523.04
2023-04-19T23:03:08.404Z,100523.06
2023-04-19T23:05:40.476Z,100524.71
2023-04-19T23:08:13.271Z,100524.63
2023-04-19T23:10:45.536Z,100524.25
2023-04-19T23:13:17.420Z,100521.45
2023-04-19T23:15:48.875Z,100526.26
2023-04-19T23:18:21.608Z,100529.15
2023-04-19T23:20:53.235Z,100531.42
2023-04-19T23:23:24.888Z,100532.52
2023-04-19T23:25:56.259Z,100527.80
2023-04-19T23:28:27.711Z,100524.67
2023-04-19T23:30:59.167Z,100526.41
2023-04-19T23:33:30.659Z,100523.48
2023-04-19T23:36:05.022Z,100520.52
2023-04-19T23:38:36.564Z,100517.08
2023-04-19T23:41:08.149Z,100514.49
2023-04-19T23:43:39.811Z,100516.80
2023-04-19T23:46:15.760Z,100517.66
2023-04-19T23:48:47.705Z,100512.05
2023-04-19T23:51:19.157Z,100511.39
2023-04-19T23:53:50.885Z,100512.80
2023-04-19T23:56:22.282Z,100508.66
2023-04-19T23:58:53.796Z,100505.05
